Terminal Aerodrome Forecast
Issued by NWS

Home | Current Version | Previous Version | Text Only | Print | Product List | Glossary On
Versions: 1 2 3 4 5 6 7 8 9 10 11 12 13 14 15
000
FTUS41 KCAR 221129
TAFBHB
TAF
KBHB 221129Z 2212/2312 04009KT P6SM SCT035
     FM230000 05005KT P6SM BKN045
     FM230300 02004KT P6SM BKN020
     FM230900 01004KT 3SM BR BKN010=

USA.gov is the U.S. government's official web portal to all federal, state and local government web resources and services.